createdAt,value
2018-02-21T00:02:57.873Z,55.12
2018-02-21T00:06:07.914Z,45.40
2018-02-21T00:09:17.848Z,43.50
2018-02-21T00:12:28.493Z,38.78
2018-02-21T00:15:38.824Z,47.13
2018-02-21T00:18:48.708Z,43.03
2018-02-21T00:21:59.247Z,31.58
2018-02-21T00:25:09.813Z,36.70
2018-02-21T00:28:19.739Z,50.92
2018-02-21T00:31:29.932Z,33.00
2018-02-21T00:34:39.806Z,52.55
2018-02-21T00:37:50.620Z,34.30
2018-02-21T00:41:01.339Z,33.45
2018-02-21T00:44:11.745Z,32.50
2018-02-21T00:47:22.518Z,40.05
2018-02-21T00:50:32.854Z,34.22
2018-02-21T00:53:43.033Z,43.03
2018-02-21T00:56:53.304Z,51.40
2018-02-21T01:00:03.409Z,39.60
2018-02-21T01:03:13.634Z,29.02
2018-02-21T01:06:23.500Z,43.78
2018-02-21T01:09:33.642Z,39.00
2018-02-21T01:12:44.937Z,38.33
2018-02-21T01:15:55.340Z,28.80
2018-02-21T01:19:05.353Z,29.65
2018-02-21T01:22:15.344Z,53.20
2018-02-21T01:25:25.261Z,42.75
2018-02-21T01:28:35.448Z,34.83
2018-02-21T01:31:45.955Z,33.83
2018-02-21T01:34:55.664Z,51.42
2018-02-21T01:38:05.770Z,35.05
2018-02-21T01:41:16.316Z,50.17
2018-02-21T01:44:27.352Z,36.30
2018-02-21T01:47:37.284Z,44.97
2018-02-21T01:50:52.614Z,26.02
2018-02-21T01:54:03.827Z,43.40
2018-02-21T01:57:14.716Z,35.25
2018-02-21T02:00:24.833Z,32.97
2018-02-21T02:03:34.911Z,29.40
2018-02-21T02:06:44.994Z,23.42
2018-02-21T02:09:55.226Z,30.73
2018-02-21T02:13:05.227Z,48.25
2018-02-21T02:16:15.132Z,27.67
2018-02-21T02:19:25.248Z,30.65
2018-02-21T02:22:35.304Z,46.47
2018-02-21T02:25:46.734Z,37.60
2018-02-21T02:28:58.023Z,35.40
2018-02-21T02:32:08.105Z,45.03
2018-02-21T02:35:18.548Z,40.58
2018-02-21T02:38:40.143Z,41.08
2018-02-21T02:41:50.790Z,33.90
2018-02-21T02:45:01.186Z,42.62
2018-02-21T02:48:11.057Z,40.58
2018-02-21T02:51:20.776Z,34.03
2018-02-21T02:54:30.783Z,26.20
2018-02-21T02:57:41.452Z,41.47
2018-02-21T03:00:52.057Z,37.92
2018-02-21T03:04:02.119Z,40.22
2018-02-21T03:07:12.112Z,49.30
2018-02-21T03:10:22.319Z,32.78
2018-02-21T03:13:32.314Z,48.00
2018-02-21T03:16:42.960Z,43.28
2018-02-21T03:19:53.214Z,51.75
2018-02-21T03:23:03.500Z,34.03
2018-02-21T03:26:14.252Z,33.60
2018-02-21T03:29:25.805Z,31.08
2018-02-21T03:32:36.029Z,30.85
2018-02-21T03:35:46.304Z,46.70
2018-02-21T03:38:56.136Z,41.97
2018-02-21T03:42:06.067Z,53.72
2018-02-21T03:45:16.303Z,39.90
2018-02-21T03:48:27.337Z,47.72
2018-02-21T03:51:37.191Z,31.83
2018-02-21T03:54:47.299Z,33.55
2018-02-21T03:57:57.044Z,33.10
2018-02-21T04:01:07.547Z,33.00
2018-02-21T04:04:18.082Z,49.70
2018-02-21T04:07:28.951Z,32.67
2018-02-21T04:10:39.334Z,29.15
2018-02-21T04:13:49.487Z,39.47
2018-02-21T04:16:59.325Z,41.80
2018-02-21T04:20:09.148Z,39.05
2018-02-21T04:23:19.706Z,23.85
2018-02-21T04:26:29.930Z,28.67
2018-02-21T04:29:40.100Z,43.75
2018-02-21T04:32:49.979Z,43.97
2018-02-21T04:36:00.258Z,44.80
2018-02-21T04:39:10.176Z,36.25
2018-02-21T04:42:20.501Z,32.90
2018-02-21T04:45:30.608Z,48.55
2018-02-21T04:48:41.440Z,52.20
2018-02-21T04:51:52.040Z,40.90
2018-02-21T04:58:49.714Z,53.50
2018-02-21T05:02:00.040Z,34.60
2018-02-21T05:05:10.324Z,43.35
2018-02-21T05:08:20.081Z,43.63
2018-02-21T05:11:30.564Z,33.72
2018-02-21T05:14:40.619Z,33.85
2018-02-21T05:17:50.415Z,44.03
2018-02-21T05:21:00.344Z,41.90
2018-02-21T05:24:10.487Z,37.75
2018-02-21T05:27:20.424Z,38.95
2018-02-21T05:30:30.262Z,54.03
2018-02-21T05:33:40.433Z,32.60
2018-02-21T05:36:50.253Z,32.83
2018-02-21T05:40:00.274Z,43.08
2018-02-21T05:43:10.423Z,39.85
2018-02-21T05:46:20.203Z,40.03
2018-02-21T05:49:30.314Z,44.95
2018-02-21T05:52:40.989Z,35.08
2018-02-21T05:55:51.791Z,34.13
2018-02-21T05:59:01.655Z,36.85
2018-02-21T06:02:12.203Z,41.80
2018-02-21T06:05:23.038Z,49.75
2018-02-21T06:08:33.758Z,39.40
2018-02-21T06:11:44.376Z,35.72
2018-02-21T06:14:55.066Z,67.12
2018-02-21T06:18:05.124Z,28.65
2018-02-21T06:21:15.236Z,29.58
2018-02-21T06:24:25.281Z,49.45
2018-02-21T06:27:36.149Z,39.20
2018-02-21T06:30:46.114Z,35.05
2018-02-21T06:33:56.263Z,29.20
2018-02-21T06:37:06.302Z,34.40
2018-02-21T06:40:16.161Z,43.00
2018-02-21T06:43:26.769Z,42.35
2018-02-21T06:46:36.878Z,40.28
2018-02-21T06:49:47.728Z,58.70
2018-02-21T06:52:57.601Z,60.53
2018-02-21T06:56:07.755Z,34.97
2018-02-21T06:59:17.555Z,37.88
2018-02-21T07:02:34.876Z,39.00
2018-02-21T07:05:44.830Z,39.17
2018-02-21T07:08:54.650Z,36.13
2018-02-21T07:12:04.619Z,32.05
2018-02-21T07:15:14.668Z,35.63
2018-02-21T07:18:24.625Z,45.35
2018-02-21T07:21:34.704Z,38.30
2018-02-21T07:24:44.567Z,43.75
2018-02-21T07:27:54.610Z,43.17
2018-02-21T07:31:05.430Z,47.65
2018-02-21T07:34:16.371Z,43.42
2018-02-21T07:37:26.709Z,37.72
2018-02-21T07:40:41.199Z,35.72
2018-02-21T07:43:50.891Z,51.60
2018-02-21T07:47:00.827Z,39.03
2018-02-21T07:50:11.005Z,21.60
2018-02-21T07:53:21.167Z,64.03
2018-02-21T07:56:31.431Z,53.78
2018-02-21T07:59:41.307Z,47.25
2018-02-21T08:02:51.567Z,37.85
2018-02-21T08:06:01.757Z,26.90
2018-02-21T08:09:11.932Z,50.47
2018-02-21T08:12:21.906Z,52.67
2018-02-21T08:15:31.956Z,38.67
2018-02-21T08:18:41.873Z,31.48
2018-02-21T08:21:52.214Z,47.45
2018-02-21T08:25:02.756Z,65.87
2018-02-21T08:28:13.191Z,39.63
2018-02-21T08:31:23.198Z,43.17
2018-02-21T08:34:33.524Z,26.30
2018-02-21T08:37:44.349Z,36.15
2018-02-21T08:40:54.844Z,37.08
2018-02-21T08:44:04.609Z,64.35
2018-02-21T08:47:14.645Z,34.78
2018-02-21T08:50:25.625Z,43.65
2018-02-21T08:53:36.075Z,44.00
2018-02-21T08:56:46.552Z,23.20
2018-02-21T08:59:56.622Z,40.15
2018-02-21T09:03:06.532Z,54.45
2018-02-21T09:06:16.642Z,52.28
2018-02-21T09:09:26.755Z,56.53
2018-02-21T09:12:36.853Z,46.30
2018-02-21T09:15:47.063Z,36.15
2018-02-21T09:18:57.768Z,32.13
2018-02-21T09:22:07.836Z,27.13
2018-02-21T09:25:17.918Z,49.53
2018-02-21T09:28:28.412Z,56.13
2018-02-21T09:31:38.469Z,38.92
2018-02-21T09:34:48.727Z,36.65
2018-02-21T09:37:59.031Z,32.13
2018-02-21T09:41:10.468Z,41.50
2018-02-21T09:44:21.083Z,53.45
2018-02-21T09:47:31.197Z,42.45
2018-02-21T09:50:41.853Z,54.65
2018-02-21T09:53:52.137Z,32.92
2018-02-21T09:57:03.092Z,47.65
2018-02-21T10:00:13.516Z,52.47
2018-02-21T10:03:23.606Z,35.17
2018-02-21T10:06:34.343Z,44.30
2018-02-21T10:09:45.038Z,45.65
2018-02-21T10:12:55.281Z,47.28
2018-02-21T10:16:05.308Z,55.65
2018-02-21T10:19:15.276Z,33.30
2018-02-21T10:22:25.353Z,45.35
2018-02-21T10:25:35.638Z,59.20
2018-02-21T10:28:46.344Z,42.88
2018-02-21T10:31:56.902Z,37.65
2018-02-21T10:35:06.913Z,63.67
2018-02-21T10:38:17.676Z,39.00
2018-02-21T10:41:28.877Z,39.65
2018-02-21T10:44:39.233Z,42.95
2018-02-21T10:47:49.652Z,34.60
2018-02-21T10:51:00.099Z,24.25
2018-02-21T10:54:10.991Z,56.13
2018-02-21T10:57:21.261Z,24.63
2018-02-21T11:00:36.987Z,26.37
2018-02-21T11:03:46.857Z,29.08
2018-02-21T11:06:57.561Z,28.73
2018-02-21T11:10:07.638Z,34.92
2018-02-21T11:13:17.817Z,35.03
2018-02-21T11:16:28.620Z,53.85
2018-02-21T11:19:39.311Z,43.53
2018-02-21T11:22:49.320Z,29.52
2018-02-21T11:25:59.546Z,34.72
2018-02-21T11:29:09.498Z,48.45
2018-02-21T11:32:19.700Z,24.90
2018-02-21T11:35:29.789Z,39.65
2018-02-21T11:38:40.127Z,29.92
2018-02-21T11:41:50.018Z,31.25
2018-02-21T11:44:59.916Z,47.47
2018-02-21T11:48:10.203Z,36.10
2018-02-21T11:51:20.654Z,38.70
2018-02-21T11:54:30.520Z,36.28
2018-02-21T11:57:41.461Z,40.45
2018-02-21T12:00:51.293Z,38.17
2018-02-21T12:04:01.448Z,56.88
2018-02-21T12:07:11.611Z,34.55
2018-02-21T12:10:22.829Z,21.35
2018-02-21T12:13:33.004Z,26.40
2018-02-21T12:16:42.938Z,36.08
2018-02-21T12:19:53.577Z,37.33
2018-02-21T12:23:03.622Z,28.92
2018-02-21T12:26:13.868Z,29.60
2018-02-21T12:29:24.617Z,30.42
2018-02-21T12:36:09.003Z,30.33
2018-02-21T12:39:25.608Z,28.45
2018-02-21T12:42:36.943Z,22.85
2018-02-21T12:45:47.299Z,39.28
2018-02-21T12:48:57.192Z,25.75
2018-02-21T12:52:07.448Z,17.70
2018-02-21T12:55:17.306Z,20.65
2018-02-21T12:58:28.222Z,16.67
2018-02-21T13:01:38.120Z,33.45
2018-02-21T13:04:49.064Z,31.33
2018-02-21T13:07:59.499Z,23.87
2018-02-21T13:11:09.901Z,24.70
2018-02-21T13:14:19.725Z,25.30
2018-02-21T13:17:29.871Z,24.48
2018-02-21T13:20:39.810Z,28.45
2018-02-21T13:23:50.516Z,38.78
2018-02-21T13:27:00.608Z,33.38
2018-02-21T13:30:10.677Z,18.37
2018-02-21T13:33:20.612Z,26.23
2018-02-21T13:36:30.414Z,31.87
2018-02-21T13:39:40.778Z,29.00
2018-02-21T13:42:51.665Z,21.50
2018-02-21T13:46:01.688Z,23.92
2018-02-21T13:49:12.263Z,21.25
2018-02-21T13:52:22.414Z,19.20
2018-02-21T13:55:33.099Z,24.90
2018-02-21T13:58:43.388Z,28.15
2018-02-21T14:01:53.451Z,25.80
2018-02-21T14:05:04.066Z,27.00
2018-02-21T14:08:14.964Z,25.23
2018-02-21T14:11:25.191Z,18.17
2018-02-21T14:14:35.049Z,26.00
2018-02-21T14:17:45.116Z,23.30
2018-02-21T14:20:55.092Z,22.02
2018-02-21T14:24:08.260Z,26.40
2018-02-21T14:27:19.086Z,17.98
2018-02-21T14:30:29.510Z,24.02
2018-02-21T14:33:39.551Z,21.92
2018-02-21T14:36:49.385Z,17.15
2018-02-21T14:39:59.238Z,24.33
2018-02-21T14:43:09.925Z,20.23
2018-02-21T14:46:19.914Z,26.62
2018-02-21T14:49:30.296Z,21.30
2018-02-21T14:52:40.123Z,26.17
2018-02-21T14:55:50.468Z,22.27
2018-02-21T14:59:01.202Z,20.17
2018-02-21T15:02:11.219Z,24.80
2018-02-21T15:05:21.800Z,32.53
2018-02-21T15:08:32.527Z,19.42
2018-02-21T15:11:43.303Z,37.42
2018-02-21T15:14:53.259Z,25.17
2018-02-21T15:18:03.605Z,32.50
2018-02-21T15:21:13.631Z,23.90
2018-02-21T15:24:31.681Z,26.67
2018-02-21T15:27:42.253Z,18.83
2018-02-21T15:30:53.400Z,28.98
2018-02-21T15:34:03.623Z,20.62
2018-02-21T15:37:13.852Z,23.17
2018-02-21T15:40:25.222Z,30.98
2018-02-21T15:43:36.916Z,23.77
2018-02-21T15:46:47.291Z,24.08
2018-02-21T15:49:57.097Z,23.08
2018-02-21T15:53:07.281Z,29.05
2018-02-21T15:56:17.340Z,25.90
2018-02-21T15:59:27.546Z,17.87
2018-02-21T16:02:37.908Z,21.20
2018-02-21T16:05:48.743Z,19.98
2018-02-21T16:08:59.170Z,20.30
2018-02-21T16:12:09.080Z,20.37
2018-02-21T16:15:19.017Z,18.25
2018-02-21T16:18:29.706Z,26.17
2018-02-21T16:21:40.531Z,20.95
2018-02-21T16:24:50.395Z,18.87
2018-02-21T16:28:01.469Z,30.65
2018-02-21T16:31:11.448Z,20.25
2018-02-21T16:34:21.284Z,20.20
2018-02-21T16:37:31.206Z,16.75
2018-02-21T16:40:41.362Z,20.80
2018-02-21T16:43:51.563Z,30.70
2018-02-21T16:47:02.343Z,17.05
2018-02-21T16:50:12.231Z,18.40
2018-02-21T16:53:22.269Z,17.27
2018-02-21T16:56:32.672Z,21.15
2018-02-21T16:59:44.094Z,19.00
2018-02-21T17:02:55.116Z,16.33
2018-02-21T17:06:05.695Z,18.98
2018-02-21T17:09:16.301Z,19.40
2018-02-21T17:12:27.161Z,19.75
2018-02-21T17:15:37.257Z,18.08
2018-02-21T17:18:47.982Z,19.50
2018-02-21T17:21:58.380Z,27.90
2018-02-21T17:25:08.449Z,26.12
2018-02-21T17:28:19.038Z,23.25
2018-02-21T17:31:28.927Z,20.65
2018-02-21T17:34:38.861Z,28.70
2018-02-21T17:37:48.859Z,18.83
2018-02-21T17:41:05.020Z,19.50
2018-02-21T17:44:15.848Z,18.42
2018-02-21T17:47:26.314Z,15.70
2018-02-21T17:50:36.429Z,24.00
2018-02-21T17:53:46.942Z,23.20
2018-02-21T17:56:57.455Z,15.98
2018-02-21T18:00:07.817Z,15.65
2018-02-21T18:03:17.715Z,21.10
2018-02-21T18:06:27.724Z,21.75
2018-02-21T18:09:37.523Z,19.02
2018-02-21T18:12:49.079Z,20.92
2018-02-21T18:15:59.212Z,45.17
2018-02-21T18:19:09.220Z,23.60
2018-02-21T18:22:19.208Z,24.20
2018-02-21T18:25:30.035Z,19.58
2018-02-21T18:28:40.253Z,16.60
2018-02-21T18:31:50.434Z,15.52
2018-02-21T18:35:00.628Z,17.60
2018-02-21T18:38:11.655Z,19.52
2018-02-21T18:41:22.046Z,20.50
2018-02-21T18:44:32.496Z,19.52
2018-02-21T18:47:43.183Z,18.00
2018-02-21T18:50:53.214Z,22.85
2018-02-21T18:54:03.556Z,18.80
2018-02-21T18:57:13.495Z,22.48
2018-02-21T19:00:24.223Z,18.17
2018-02-21T19:03:34.939Z,20.45
2018-02-21T19:06:45.541Z,17.48
2018-02-21T19:09:56.847Z,23.33
2018-02-21T19:13:07.613Z,30.33
2018-02-21T19:16:18.331Z,20.88
2018-02-21T19:19:28.323Z,16.15
2018-02-21T19:22:38.778Z,24.15
2018-02-21T19:25:49.366Z,17.65
2018-02-21T19:29:00.076Z,16.35
2018-02-21T19:32:10.037Z,18.02
2018-02-21T19:35:19.841Z,16.95
2018-02-21T19:38:29.844Z,25.48
2018-02-21T19:41:40.801Z,19.83
2018-02-21T19:44:51.067Z,26.55
2018-02-21T19:48:00.980Z,19.27
2018-02-21T19:51:10.863Z,30.45
2018-02-21T19:54:21.476Z,32.10
2018-02-21T19:57:32.062Z,15.38
2018-02-21T20:00:42.158Z,17.42
2018-02-21T20:03:52.931Z,16.70
2018-02-21T20:07:02.727Z,19.70
2018-02-21T20:10:13.062Z,21.08
2018-02-21T20:13:24.040Z,20.77
2018-02-21T20:16:34.379Z,15.00
2018-02-21T20:19:44.789Z,19.60
2018-02-21T20:22:54.959Z,23.83
2018-02-21T20:26:05.212Z,20.62
2018-02-21T20:29:15.125Z,17.60
2018-02-21T20:32:25.464Z,17.92
2018-02-21T20:35:36.709Z,19.75
2018-02-21T20:38:46.801Z,18.30
2018-02-21T20:41:56.928Z,24.20
2018-02-21T20:45:06.791Z,26.85
2018-02-21T20:48:17.553Z,20.40
2018-02-21T20:51:27.720Z,30.20
2018-02-21T20:54:37.595Z,24.15
2018-02-21T20:57:47.564Z,27.30
2018-02-21T21:00:57.791Z,23.98
2018-02-21T21:04:07.572Z,21.02
2018-02-21T21:07:17.765Z,20.95
2018-02-21T21:10:28.399Z,18.10
2018-02-21T21:13:39.494Z,38.03
2018-02-21T21:16:49.726Z,18.60
2018-02-21T21:20:00.556Z,16.73
2018-02-21T21:23:10.441Z,18.85
2018-02-21T21:26:20.857Z,22.37
2018-02-21T21:29:31.311Z,14.55
2018-02-21T21:32:41.151Z,23.65
2018-02-21T21:35:51.883Z,21.40
2018-02-21T21:39:01.735Z,27.40
2018-02-21T21:42:11.968Z,20.42
2018-02-21T21:45:21.741Z,19.25
2018-02-21T21:48:32.023Z,18.80
2018-02-21T21:51:42.192Z,34.70
2018-02-21T21:54:52.147Z,19.30
2018-02-21T21:58:02.136Z,23.60
2018-02-21T22:01:12.141Z,20.95
2018-02-21T22:04:22.997Z,17.50
2018-02-21T22:07:33.335Z,17.87
2018-02-21T22:10:43.343Z,15.82
2018-02-21T22:13:53.244Z,15.43
2018-02-21T22:17:03.283Z,21.02
2018-02-21T22:20:14.087Z,16.23
2018-02-21T22:23:24.368Z,21.98
2018-02-21T22:26:34.194Z,23.55
2018-02-21T22:29:44.786Z,28.98
2018-02-21T22:32:54.848Z,32.88
2018-02-21T22:36:04.873Z,22.70
2018-02-21T22:39:15.068Z,23.87
2018-02-21T22:42:25.074Z,19.90
2018-02-21T22:45:35.808Z,20.52
2018-02-21T22:48:45.543Z,19.50
2018-02-21T22:51:55.412Z,15.50
2018-02-21T22:55:05.375Z,20.37
2018-02-21T22:58:15.333Z,16.40
2018-02-21T23:01:26.008Z,23.55
2018-02-21T23:04:36.905Z,23.70
2018-02-21T23:07:47.754Z,21.30
2018-02-21T23:10:58.232Z,14.40
2018-02-21T23:14:08.189Z,16.70
2018-02-21T23:17:17.951Z,23.50
2018-02-21T23:20:27.985Z,20.62
2018-02-21T23:23:37.828Z,18.00
2018-02-21T23:26:47.804Z,28.38
2018-02-21T23:29:57.784Z,27.85
2018-02-21T23:33:07.852Z,17.83
2018-02-21T23:36:17.771Z,14.80
2018-02-21T23:39:28.029Z,18.05
2018-02-21T23:42:38.740Z,19.80
2018-02-21T23:45:49.275Z,32.70
2018-02-21T23:48:59.705Z,22.48
2018-02-21T23:52:09.853Z,15.43
2018-02-21T23:55:20.057Z,25.50
2018-02-21T23:58:30.481Z,20.65
